createdAt,value
2018-07-12T00:00:07.994Z,44.27
2018-07-12T00:01:08.194Z,44.17
2018-07-12T00:02:07.768Z,43.79
2018-07-12T00:03:08.063Z,44.37
2018-07-12T00:04:08.082Z,44.27
2018-07-12T00:05:07.832Z,44.27
2018-07-12T00:06:08.123Z,44.37
2018-07-12T00:07:08.142Z,44.27
2018-07-12T00:08:07.897Z,44.37
2018-07-12T00:09:07.919Z,44.56
2018-07-12T00:10:08.204Z,44.37
2018-07-12T00:11:07.960Z,44.46
2018-07-12T00:12:08.249Z,44.65
2018-07-12T00:13:08.272Z,44.46
2018-07-12T00:14:08.396Z,44.46
2018-07-12T00:15:08.368Z,44.46
2018-07-12T00:16:08.335Z,44.75
2018-07-12T00:17:08.451Z,44.65
2018-07-12T00:18:08.603Z,44.65
2018-07-12T00:19:08.134Z,44.65
2018-07-12T00:20:08.154Z,44.84
2018-07-12T00:21:08.455Z,44.84
2018-07-12T00:22:08.197Z,44.94
2018-07-12T00:23:08.219Z,44.65
2018-07-12T00:24:08.513Z,44.75
2018-07-12T00:25:08.260Z,44.84
2018-07-12T00:26:08.548Z,44.75
2018-07-12T00:27:08.568Z,44.92
2018-07-12T00:28:08.592Z,45.04
2018-07-12T00:29:08.610Z,44.92
2018-07-12T00:30:08.365Z,44.92
2018-07-12T00:31:08.500Z,45.01
2018-07-12T00:32:08.530Z,45.11
2018-07-12T00:33:08.875Z,44.92
2018-07-12T00:34:08.896Z,44.92
2018-07-12T00:35:08.923Z,45.11
2018-07-12T00:36:08.912Z,45.11
2018-07-12T00:37:08.609Z,45.01
2018-07-12T00:38:08.804Z,45.3
2018-07-12T00:39:08.969Z,45.11
2018-07-12T00:40:08.847Z,45.21
2018-07-12T00:41:09.091Z,45.3
2018-07-12T00:42:09.097Z,45.3
2018-07-12T00:43:09.106Z,45.3
2018-07-12T00:44:08.930Z,45.21
2018-07-12T00:45:08.685Z,45.11
2018-07-12T00:46:09.152Z,45.3
2018-07-12T00:47:09.002Z,45.3
2018-07-12T00:48:09.016Z,45.4
2018-07-12T00:49:09.042Z,45.4
2018-07-12T00:50:09.237Z,45.3
2018-07-12T00:51:08.814Z,45.3
2018-07-12T00:52:09.263Z,45.3
2018-07-12T00:53:09.121Z,45.3
2018-07-12T00:54:08.956Z,45.59
2018-07-12T00:55:09.160Z,45.59
2018-07-12T00:56:09.187Z,45.59
2018-07-12T00:57:09.205Z,45.5
2018-07-12T00:58:09.310Z,45.4
2018-07-12T00:59:09.248Z,45.59
2018-07-12T01:00:09.331Z,45.59
2018-07-12T01:01:09.343Z,45.68
2018-07-12T01:02:09.308Z,45.57
2018-07-12T01:03:09.330Z,45.59
2018-07-12T01:04:09.350Z,45.67
2018-07-12T01:05:09.376Z,45.68
2018-07-12T01:06:09.397Z,45.88
2018-07-12T01:07:09.417Z,45.86
2018-07-12T01:08:09.438Z,45.78
2018-07-12T01:09:09.462Z,45.86
2018-07-12T01:10:09.487Z,45.76
2018-07-12T01:11:09.499Z,45.86
2018-07-12T01:12:09.520Z,45.86
2018-07-12T01:13:09.551Z,45.86
2018-07-12T01:14:09.295Z,46.05
2018-07-12T01:15:09.582Z,45.95
2018-07-12T01:16:09.338Z,45.86
2018-07-12T01:17:09.359Z,45.95
2018-07-12T01:18:09.394Z,45.86
2018-07-12T01:19:09.671Z,46.05
2018-07-12T01:20:09.689Z,45.86
2018-07-12T01:21:09.717Z,45.86
2018-07-12T01:22:09.735Z,45.95
2018-07-12T01:23:09.756Z,46.14
2018-07-12T01:24:09.771Z,45.95
2018-07-12T01:25:09.791Z,46.05
2018-07-12T01:26:09.815Z,46.05
2018-07-12T01:27:09.836Z,46.34
2018-07-12T01:28:09.857Z,46.14
2018-07-12T01:29:09.609Z,46.14
2018-07-12T01:30:10.081Z,46.43
2018-07-12T01:31:09.928Z,46.34
2018-07-12T01:32:09.936Z,46.53
2018-07-12T01:33:09.959Z,46.43
2018-07-12T01:34:09.984Z,46.43
2018-07-12T01:35:10.004Z,46.34
2018-07-12T01:36:10.155Z,46.34
2018-07-12T01:37:10.208Z,46.34
2018-07-12T01:38:10.064Z,46.43
2018-07-12T01:39:10.239Z,46.43
2018-07-12T01:40:10.253Z,46.43
2018-07-12T01:41:10.131Z,46.34
2018-07-12T01:42:10.275Z,46.34
2018-07-12T01:43:10.165Z,46.72
2018-07-12T01:44:10.188Z,46.72
2018-07-12T01:45:10.207Z,46.34
2018-07-12T01:46:10.227Z,46.91
2018-07-12T01:47:10.401Z,46.53
2018-07-12T01:48:10.269Z,46.91
2018-07-12T01:49:10.290Z,46.81
2018-07-12T01:50:10.339Z,46.53
2018-07-12T01:51:10.331Z,46.81
2018-07-12T01:52:10.366Z,46.79
2018-07-12T01:53:10.374Z,46.6
2018-07-12T01:54:10.397Z,46.89
2018-07-12T01:55:10.415Z,46.89
2018-07-12T01:56:10.438Z,46.79
2018-07-12T01:57:10.458Z,47.08
2018-07-12T01:58:10.478Z,46.89
2018-07-12T01:59:10.684Z,46.91
2018-07-12T02:00:10.519Z,47.08
2018-07-12T02:01:10.717Z,47.08
2018-07-12T02:02:10.564Z,46.98
2018-07-12T02:03:10.579Z,46.98
2018-07-12T02:04:10.600Z,47.08
2018-07-12T02:05:10.621Z,47.27
2018-07-12T02:06:10.641Z,47.08
2018-07-12T02:07:10.660Z,47.17
2018-07-12T02:08:10.678Z,46.89
2018-07-12T02:09:10.436Z,47.66
2018-07-12T02:10:10.726Z,47.56
2018-07-12T02:11:10.479Z,47.17
2018-07-12T02:12:10.763Z,47.75
2018-07-12T02:13:10.786Z,46.98
2018-07-12T02:14:10.806Z,47.66
2018-07-12T02:15:10.827Z,47.75
2018-07-12T02:16:10.853Z,47.75
2018-07-12T02:17:10.874Z,47.85
2018-07-12T02:18:10.887Z,47.94
2018-07-12T02:19:10.906Z,48.23
2018-07-12T02:20:10.932Z,48.13
2018-07-12T02:21:10.887Z,48.13
2018-07-12T02:22:10.968Z,48.04
2018-07-12T02:23:10.996Z,48.52
2018-07-12T02:24:10.742Z,48.52
2018-07-12T02:25:10.763Z,47.75
2018-07-12T02:26:11.053Z,48.33
2018-07-12T02:27:11.077Z,48.04
2018-07-12T02:28:11.093Z,48.23
2018-07-12T02:29:11.113Z,48.33
2018-07-12T02:30:10.868Z,48.33
2018-07-12T02:31:11.153Z,48.23
2018-07-12T02:32:11.175Z,48.52
2018-07-12T02:33:11.196Z,48.33
2018-07-12T02:34:11.216Z,48.23
2018-07-12T02:35:11.399Z,48.23
2018-07-12T02:36:10.988Z,48.71
2018-07-12T02:37:11.276Z,48.33
2018-07-12T02:38:11.393Z,48.33
2018-07-12T02:39:11.318Z,48.71
2018-07-12T02:40:11.344Z,49
2018-07-12T02:41:11.358Z,48.9
2018-07-12T02:42:11.111Z,49.38
2018-07-12T02:43:11.436Z,49.48
2018-07-12T02:44:11.416Z,49.38
2018-07-12T02:45:11.440Z,49.38
2018-07-12T02:46:11.203Z,49.29
2018-07-12T02:47:11.482Z,49.19
2018-07-12T02:48:11.499Z,49.19
2018-07-12T02:49:11.700Z,49.19
2018-07-12T02:50:11.542Z,49.29
2018-07-12T02:51:11.295Z,49.38
2018-07-12T02:52:11.584Z,49.29
2018-07-12T02:53:11.603Z,49.29
2018-07-12T02:54:11.623Z,49.19
2018-07-12T02:55:11.642Z,49.38
2018-07-12T02:56:11.668Z,49.38
2018-07-12T02:57:11.416Z,49.67
2018-07-12T02:58:11.437Z,49.48
2018-07-12T02:59:11.727Z,49.48
2018-07-12T03:00:11.746Z,49.38
2018-07-12T03:01:11.944Z,49.86
2018-07-12T03:02:11.783Z,49.29
2018-07-12T03:03:11.814Z,49.29
2018-07-12T03:04:11.832Z,49.76
2018-07-12T03:05:11.856Z,49.57
2018-07-12T03:06:12.039Z,49.67
2018-07-12T03:07:11.907Z,49.76
2018-07-12T03:08:11.918Z,49.29
2018-07-12T03:09:11.665Z,49.67
2018-07-12T03:10:11.946Z,49.76
2018-07-12T03:11:11.978Z,49.67
2018-07-12T03:12:12.002Z,49.67
2018-07-12T03:13:12.007Z,49.86
2018-07-12T03:14:12.025Z,49.57
2018-07-12T03:15:12.055Z,50.24
2018-07-12T03:16:12.074Z,50.53
2018-07-12T03:17:12.093Z,49.55
2018-07-12T03:18:12.109Z,49.76
2018-07-12T03:19:12.130Z,49.57
2018-07-12T03:20:12.148Z,50.34
2018-07-12T03:21:11.906Z,49.48
2018-07-12T03:22:12.191Z,49.36
2018-07-12T03:23:12.209Z,50.43
2018-07-12T03:24:11.962Z,49.48
2018-07-12T03:25:12.253Z,50.24
2018-07-12T03:26:12.270Z,50.41
2018-07-12T03:27:12.023Z,49.48
2018-07-12T03:28:12.311Z,49.36
2018-07-12T03:29:12.332Z,49.38
2018-07-12T03:30:12.362Z,49.45
2018-07-12T03:31:12.383Z,50.41
2018-07-12T03:32:12.390Z,50.12
2018-07-12T03:33:12.414Z,49.76
2018-07-12T03:34:12.437Z,49.38
2018-07-12T03:35:12.453Z,49.26
2018-07-12T03:36:12.476Z,49.38
2018-07-12T03:37:12.493Z,49.74
2018-07-12T03:38:12.518Z,50.12
2018-07-12T03:39:12.534Z,49.29
2018-07-12T03:40:12.558Z,49.29
2018-07-12T03:41:12.573Z,49.55
2018-07-12T03:42:12.594Z,49.48
2018-07-12T03:43:12.612Z,49.36
2018-07-12T03:44:12.632Z,49.38
2018-07-12T03:45:12.655Z,50.24
2018-07-12T03:46:12.407Z,49.48
2018-07-12T03:47:12.692Z,49.55
2018-07-12T03:48:12.714Z,49.86
2018-07-12T03:49:12.737Z,49.67
2018-07-12T03:50:12.757Z,49.96
2018-07-12T03:51:12.776Z,49.65
2018-07-12T03:52:12.796Z,49.74
2018-07-12T03:53:12.814Z,49.65
2018-07-12T03:54:12.838Z,49.76
2018-07-12T03:55:12.857Z,49.76
2018-07-12T03:56:12.875Z,49.55
2018-07-12T03:57:12.897Z,49.74
2018-07-12T03:58:12.649Z,49.74
2018-07-12T03:59:12.937Z,49.84
2018-07-12T04:00:12.689Z,50.05
2018-07-12T04:01:12.975Z,49.93
2018-07-12T04:02:12.731Z,50.12
2018-07-12T04:03:13.015Z,50.24
2018-07-12T04:04:13.037Z,50.05
2018-07-12T04:05:12.789Z,50.32
2018-07-12T04:06:13.081Z,50.73
2018-07-12T04:07:13.102Z,50.24
2018-07-12T04:08:13.116Z,50.51
2018-07-12T04:09:13.135Z,50.05
2018-07-12T04:10:12.894Z,50.05
2018-07-12T04:11:13.180Z,50.79
2018-07-12T04:12:13.194Z,50.15
2018-07-12T04:13:12.953Z,50.05
2018-07-12T04:14:13.239Z,50.73
2018-07-12T04:15:13.271Z,50.82
2018-07-12T04:16:13.283Z,50.15
2018-07-12T04:17:13.297Z,50.15
2018-07-12T04:18:13.317Z,49.96
2018-07-12T04:19:13.341Z,50.82
2018-07-12T04:20:13.095Z,50.24
2018-07-12T04:21:13.387Z,50.53
2018-07-12T04:22:13.397Z,50.63
2018-07-12T04:23:13.416Z,50.63
2018-07-12T04:24:13.171Z,50.43
2018-07-12T04:25:13.467Z,50.53
2018-07-12T04:26:13.480Z,50.15
2018-07-12T04:27:13.499Z,50.63
2018-07-12T04:28:13.517Z,50.53
2018-07-12T04:29:13.541Z,50.34
2018-07-12T04:30:13.560Z,50.73
2018-07-12T04:31:13.577Z,50.63
2018-07-12T04:32:13.601Z,50.92
2018-07-12T04:33:13.624Z,50.53
2018-07-12T04:34:13.707Z,50.43
2018-07-12T04:35:13.657Z,50.43
2018-07-12T04:36:13.678Z,50.43
2018-07-12T04:37:13.699Z,50.82
2018-07-12T04:38:13.728Z,50.82
2018-07-12T04:39:13.473Z,50.73
2018-07-12T04:40:13.762Z,50.34
2018-07-12T04:41:13.517Z,50.43
2018-07-12T04:42:13.533Z,50.53
2018-07-12T04:43:13.822Z,51.01
2018-07-12T04:44:13.847Z,51.01
2018-07-12T04:45:13.862Z,50.43
2018-07-12T04:46:13.881Z,50.82
2018-07-12T04:47:13.637Z,50.82
2018-07-12T04:48:13.917Z,51.01
2018-07-12T04:49:13.940Z,50.82
2018-07-12T04:50:13.965Z,50.73
2018-07-12T04:51:14.171Z,50.53
2018-07-12T04:52:13.736Z,51.3
2018-07-12T04:53:14.025Z,51.01
2018-07-12T04:54:14.045Z,51.01
2018-07-12T04:55:14.064Z,51.4
2018-07-12T04:56:14.085Z,51.49
2018-07-12T04:57:14.099Z,51.1
2018-07-12T04:58:14.327Z,51.49
2018-07-12T04:59:13.878Z,51.2
2018-07-12T05:00:14.163Z,51.68
2018-07-12T05:01:14.187Z,51.2
2018-07-12T05:02:14.205Z,51.78
2018-07-12T05:03:14.223Z,51.87
2018-07-12T05:04:14.244Z,51.87
2018-07-12T05:05:14.266Z,51.78
2018-07-12T05:06:14.284Z,51.78
2018-07-12T05:07:14.306Z,51.78
2018-07-12T05:08:14.505Z,51.2
2018-07-12T05:09:14.079Z,51.1
2018-07-12T05:10:14.375Z,51.59
2018-07-12T05:11:14.387Z,51.23
2018-07-12T05:12:14.407Z,51.87
2018-07-12T05:13:14.425Z,51.59
2018-07-12T05:14:14.446Z,51.59
2018-07-12T05:15:14.471Z,51.61
2018-07-12T05:16:14.604Z,51.59
2018-07-12T05:17:14.512Z,51.42
2018-07-12T05:18:14.529Z,51.78
2018-07-12T05:19:14.560Z,51.68
2018-07-12T05:20:14.569Z,52.16
2018-07-12T05:21:14.588Z,51.97
2018-07-12T05:22:14.615Z,51.9
2018-07-12T05:23:14.630Z,52.09
2018-07-12T05:24:14.650Z,51.97
2018-07-12T05:25:14.668Z,52.19
2018-07-12T05:26:14.422Z,52.09
2018-07-12T05:27:14.708Z,52.09
2018-07-12T05:28:14.732Z,52.19
2018-07-12T05:29:14.750Z,51.9
2018-07-12T05:30:14.771Z,52.09
2018-07-12T05:31:14.792Z,52
2018-07-12T05:32:14.810Z,52.28
2018-07-12T05:33:14.831Z,52.67
2018-07-12T05:34:14.585Z,52.28
2018-07-12T05:35:14.877Z,52.28
2018-07-12T05:36:14.894Z,52.28
2018-07-12T05:37:14.915Z,52.67
2018-07-12T05:38:14.933Z,52.67
2018-07-12T05:39:15.067Z,52.76
2018-07-12T05:40:14.972Z,52.67
2018-07-12T05:41:14.994Z,52.76
2018-07-12T05:42:15.014Z,52.67
2018-07-12T05:43:14.767Z,52.76
2018-07-12T05:44:15.054Z,52.95
2018-07-12T05:45:15.076Z,52.95
2018-07-12T05:46:15.101Z,53.05
2018-07-12T05:47:15.115Z,52.67
2018-07-12T05:48:15.140Z,52.95
2018-07-12T05:49:14.892Z,53.05
2018-07-12T05:50:15.179Z,53.05
2018-07-12T05:51:15.200Z,52.86
2018-07-12T05:52:14.950Z,53.24
2018-07-12T05:53:14.977Z,53.44
2018-07-12T05:54:15.259Z,53.24
2018-07-12T05:55:15.277Z,53.44
2018-07-12T05:56:15.304Z,53.63
2018-07-12T05:57:15.323Z,52.86
2018-07-12T05:58:15.072Z,53.24
2018-07-12T05:59:15.361Z,52.76
2018-07-12T06:00:15.379Z,52.67
2018-07-12T06:01:15.400Z,53.15
2018-07-12T06:02:15.421Z,53.24
2018-07-12T06:03:15.443Z,53.82
2018-07-12T06:04:15.195Z,53.72
2018-07-12T06:05:15.488Z,53.53
2018-07-12T06:06:15.504Z,53.75
2018-07-12T06:07:15.256Z,53.72
2018-07-12T06:08:15.542Z,53.63
2018-07-12T06:09:15.567Z,53.05
2018-07-12T06:10:15.586Z,53.63
2018-07-12T06:11:15.605Z,54.3
2018-07-12T06:12:15.631Z,53.82
2018-07-12T06:13:15.849Z,53.82
2018-07-12T06:14:15.400Z,53.53
2018-07-12T06:15:15.697Z,53.82
2018-07-12T06:16:15.760Z,54.01
2018-07-12T06:17:15.474Z,53.63
2018-07-12T06:18:15.749Z,54.11
2018-07-12T06:19:15.780Z,54.61
2018-07-12T06:20:15.791Z,54.39
2018-07-12T06:21:15.816Z,54.49
2018-07-12T06:22:15.831Z,54.49
2018-07-12T06:23:15.855Z,54.01
2018-07-12T06:24:15.873Z,54.11
2018-07-12T06:25:15.895Z,54.33
2018-07-12T06:26:15.646Z,54.3
2018-07-12T06:27:15.665Z,54.88
2018-07-12T06:28:15.953Z,55.19
2018-07-12T06:29:15.710Z,54.49
2018-07-12T06:30:16.002Z,55.19
2018-07-12T06:31:16.012Z,54.97
2018-07-12T06:32:16.035Z,54.52
2018-07-12T06:33:16.058Z,55.16
2018-07-12T06:34:16.081Z,55.35
2018-07-12T06:35:15.831Z,55.26
2018-07-12T06:36:16.121Z,55.74
2018-07-12T06:37:16.325Z,55.83
2018-07-12T06:38:16.157Z,55.74
2018-07-12T06:39:16.179Z,55.74
2018-07-12T06:40:16.200Z,55.45
2018-07-12T06:41:16.227Z,55.64
2018-07-12T06:42:16.240Z,55.45
2018-07-12T06:43:16.001Z,55.55
2018-07-12T06:44:16.284Z,55.26
2018-07-12T06:45:16.305Z,55.67
2018-07-12T06:46:16.055Z,55.57
2018-07-12T06:47:16.348Z,55.83
2018-07-12T06:48:16.367Z,55.96
2018-07-12T06:49:16.386Z,55.45
2018-07-12T06:50:16.401Z,55.47
2018-07-12T06:51:16.432Z,55.67
2018-07-12T06:52:16.447Z,56.02
2018-07-12T06:53:16.468Z,55.74
2018-07-12T06:54:16.492Z,55.64
2018-07-12T06:55:16.509Z,55.83
2018-07-12T06:56:16.531Z,56.24
2018-07-12T06:57:16.547Z,55.93
2018-07-12T06:58:16.568Z,56.05
2018-07-12T06:59:16.590Z,56.02
2018-07-12T07:00:16.615Z,56.12
2018-07-12T07:01:16.364Z,56.02
2018-07-12T07:02:16.654Z,55.83
2018-07-12T07:03:16.675Z,55.83
2018-07-12T07:04:16.697Z,56.31
2018-07-12T07:05:16.742Z,56.24
2018-07-12T07:06:16.478Z,56.02
2018-07-12T07:07:16.757Z,56.22
2018-07-12T07:08:16.778Z,55.93
2018-07-12T07:09:16.797Z,55.93
2018-07-12T07:10:16.820Z,56.31
2018-07-12T07:11:16.570Z,56.6
2018-07-12T07:12:16.860Z,56.41
2018-07-12T07:13:16.917Z,56.7
2018-07-12T07:14:16.900Z,57.59
2018-07-12T07:15:16.653Z,56.79
2018-07-12T07:16:16.941Z,57.18
2018-07-12T07:17:16.965Z,56.98
2018-07-12T07:18:16.989Z,57.37
2018-07-12T07:19:16.999Z,57.56
2018-07-12T07:20:17.206Z,57.46
2018-07-12T07:21:17.046Z,57.46
2018-07-12T07:22:17.068Z,57.28
2018-07-12T07:23:16.821Z,57.59
2018-07-12T07:24:16.857Z,57.56
2018-07-12T07:25:17.130Z,57.95
2018-07-12T07:26:17.255Z,57.95
2018-07-12T07:27:17.179Z,57.75
2018-07-12T07:28:16.923Z,57.95
2018-07-12T07:29:17.212Z,58.23
2018-07-12T07:30:17.225Z,58.14
2018-07-12T07:31:17.251Z,58.33
2018-07-12T07:32:17.326Z,58.33
2018-07-12T07:33:17.301Z,58.33
2018-07-12T07:34:17.312Z,58.52
2018-07-12T07:35:17.333Z,58.52
2018-07-12T07:36:17.357Z,58.62
2018-07-12T07:37:17.375Z,58.04
2018-07-12T07:38:17.425Z,59.29
2018-07-12T07:39:17.415Z,58.71
2018-07-12T07:40:17.439Z,59.29
2018-07-12T07:41:17.463Z,59.09
2018-07-12T07:42:17.209Z,58.91
2018-07-12T07:43:17.676Z,58.91
2018-07-12T07:44:17.525Z,59.67
2018-07-12T07:45:17.272Z,59.29
2018-07-12T07:46:17.293Z,59.48
2018-07-12T07:47:17.582Z,59.67
2018-07-12T07:48:17.613Z,59.58
2018-07-12T07:49:17.662Z,59.86
2018-07-12T07:50:17.640Z,59.29
2018-07-12T07:51:17.663Z,59.48
2018-07-12T07:52:17.680Z,59.48
2018-07-12T07:53:17.713Z,59.48
2018-07-12T07:54:17.735Z,59.77
2018-07-12T07:55:17.744Z,59.38
2018-07-12T07:56:17.765Z,59.38
2018-07-12T07:57:17.791Z,59.38
2018-07-12T07:58:17.807Z,59.29
2018-07-12T07:59:17.827Z,59.38
2018-07-12T08:00:17.859Z,59.38
2018-07-12T08:01:17.624Z,59.48
2018-07-12T08:02:17.920Z,59.96
2018-07-12T08:03:17.938Z,59.58
2018-07-12T08:04:17.661Z,59.89
2018-07-12T08:05:17.694Z,59.96
2018-07-12T08:06:17.976Z,59.99
2018-07-12T08:07:17.989Z,60.05
2018-07-12T08:08:18.014Z,60.08
2018-07-12T08:09:18.032Z,59.99
2018-07-12T08:10:18.062Z,60.25
2018-07-12T08:11:18.082Z,60.08
2018-07-12T08:12:18.095Z,60.44
2018-07-12T08:13:17.853Z,60.38
2018-07-12T08:14:17.868Z,59.8
2018-07-12T08:15:18.158Z,59.99
2018-07-12T08:16:18.404Z,60.47
2018-07-12T08:17:18.197Z,60.75
2018-07-12T08:18:17.956Z,60.28
2018-07-12T08:19:17.973Z,60.63
2018-07-12T08:20:18.260Z,60.63
2018-07-12T08:21:18.283Z,60.66
2018-07-12T08:22:18.309Z,60.38
2018-07-12T08:23:18.322Z,60.47
2018-07-12T08:24:18.349Z,60.38
2018-07-12T08:25:18.384Z,60.57
2018-07-12T08:26:18.389Z,60.38
2018-07-12T08:27:18.411Z,60.66
2018-07-12T08:28:18.162Z,60.66
2018-07-12T08:29:18.454Z,60.66
2018-07-12T08:30:18.207Z,60.75
2018-07-12T08:31:18.659Z,60.47
2018-07-12T08:32:18.516Z,60.95
2018-07-12T08:33:18.617Z,60.95
2018-07-12T08:34:18.550Z,60.57
2018-07-12T08:35:18.568Z,60.57
2018-07-12T08:36:18.675Z,60.47
2018-07-12T08:37:18.611Z,60.28
2018-07-12T08:38:18.630Z,60.57
2018-07-12T08:39:18.655Z,60.75
2018-07-12T08:40:18.674Z,60.85
2018-07-12T08:41:18.704Z,60.66
2018-07-12T08:42:18.790Z,60.47
2018-07-12T08:43:18.972Z,60.57
2018-07-12T08:44:18.851Z,60.47
2018-07-12T08:45:18.789Z,60.47
2018-07-12T08:46:18.951Z,60.57
2018-07-12T08:47:18.818Z,60.57
2018-07-12T08:48:18.990Z,60.18
2018-07-12T08:49:18.672Z,60.66
2018-07-12T08:50:18.685Z,60.75
2018-07-12T08:51:18.635Z,60.38
2018-07-12T08:52:18.974Z,60.18
2018-07-12T08:53:18.677Z,60.75
2018-07-12T08:54:18.974Z,60.75
2018-07-12T08:55:18.984Z,60.47
2018-07-12T08:56:18.740Z,60.18
2018-07-12T08:57:19.031Z,60.28
2018-07-12T08:58:19.061Z,60.75
2018-07-12T08:59:18.818Z,60.66
2018-07-12T09:00:18.826Z,60.38
2018-07-12T09:01:18.841Z,60.38
2018-07-12T09:02:19.144Z,60.28
2018-07-12T09:03:19.158Z,60.95
2018-07-12T09:04:18.905Z,61.14
2018-07-12T09:05:19.195Z,61.33
2018-07-12T09:06:19.215Z,61.24
2018-07-12T09:07:19.236Z,60.85
2018-07-12T09:08:18.988Z,60.85
2018-07-12T09:09:19.012Z,61.24
2018-07-12T09:10:19.308Z,61.27
2018-07-12T09:11:19.059Z,61.65
2018-07-12T09:12:19.342Z,61.43
2018-07-12T09:13:19.094Z,61.43
2018-07-12T09:14:19.378Z,61.65
2018-07-12T09:15:19.401Z,61.36
2018-07-12T09:16:19.426Z,61.08
2018-07-12T09:17:19.448Z,61.17
2018-07-12T09:18:19.464Z,61.36
2018-07-12T09:19:19.487Z,61.46
2018-07-12T09:20:19.238Z,61.75
2018-07-12T09:21:19.260Z,61.27
2018-07-12T09:22:19.552Z,61.36
2018-07-12T09:23:19.572Z,61.46
2018-07-12T09:24:19.588Z,61.55
2018-07-12T09:25:19.391Z,61.17
2018-07-12T09:26:19.631Z,61.46
2018-07-12T09:27:19.652Z,61.46
2018-07-12T09:28:19.681Z,61.55
2018-07-12T09:29:19.921Z,61.46
2018-07-12T09:30:19.726Z,61.65
2018-07-12T09:31:19.743Z,61.94
2018-07-12T09:32:19.489Z,61.84
2018-07-12T09:33:19.781Z,62.13
2018-07-12T09:34:19.797Z,61.75
2018-07-12T09:35:19.820Z,62.42
2018-07-12T09:36:19.840Z,62.42
2018-07-12T09:37:19.865Z,62.32
2018-07-12T09:38:19.883Z,62.04
2018-07-12T09:39:19.903Z,62.26
2018-07-12T09:40:19.926Z,62.13
2018-07-12T09:41:19.700Z,62.26
2018-07-12T09:42:19.985Z,62.42
2018-07-12T09:43:19.727Z,61.97
2018-07-12T09:44:20.028Z,62.55
2018-07-12T09:45:20.091Z,62.16
2018-07-12T09:46:19.787Z,62.13
2018-07-12T09:47:20.266Z,61.94
2018-07-12T09:48:19.840Z,61.94
2018-07-12T09:49:20.465Z,61.87
2018-07-12T09:50:19.875Z,62.35
2018-07-12T09:51:20.170Z,61.78
2018-07-12T09:52:20.185Z,61.87
2018-07-12T09:53:20.200Z,61.78
2018-07-12T09:54:20.220Z,61.87
2018-07-12T09:55:20.252Z,61.49
2018-07-12T09:56:20.727Z,61.97
2018-07-12T09:57:20.019Z,61.4
2018-07-12T09:58:20.482Z,61.58
2018-07-12T09:59:20.418Z,61.68
2018-07-12T10:00:20.426Z,61.49
2018-07-12T10:01:20.554Z,61.52
2018-07-12T10:02:20.461Z,61.58
2018-07-12T10:03:20.450Z,61.87
2018-07-12T10:04:20.543Z,61.4
2018-07-12T10:05:20.476Z,61.4
2018-07-12T10:06:20.210Z,61.52
2018-07-12T10:07:20.527Z,61.52
2018-07-12T10:08:20.517Z,61.52
2018-07-12T10:09:20.540Z,61.33
2018-07-12T10:10:20.559Z,61.43
2018-07-12T10:11:20.579Z,61.61
2018-07-12T10:12:20.601Z,62.38
2018-07-12T10:13:20.625Z,62.58
2018-07-12T10:14:20.646Z,62.1
2018-07-12T10:15:20.665Z,62.29
2018-07-12T10:16:20.689Z,62.29
2018-07-12T10:17:20.810Z,62.38
2018-07-12T10:18:20.728Z,62.96
2018-07-12T10:19:20.753Z,63.06
2018-07-12T10:20:20.778Z,63.25
2018-07-12T10:21:20.529Z,63.06
2018-07-12T10:22:20.548Z,63.06
2018-07-12T10:23:20.571Z,62.38
2018-07-12T10:24:20.858Z,62.48
2018-07-12T10:25:20.878Z,62.58
2018-07-12T10:26:20.902Z,62.77
2018-07-12T10:27:21.037Z,62.48
2018-07-12T10:28:20.985Z,62.48
2018-07-12T10:29:20.969Z,62.58
2018-07-12T10:30:21.011Z,62.1
2018-07-12T10:31:21.123Z,62.19
2018-07-12T10:32:21.035Z,62.48
2018-07-12T10:33:21.057Z,62.58
2018-07-12T10:34:21.085Z,62.48
2018-07-12T10:35:21.096Z,62
2018-07-12T10:36:21.119Z,62
2018-07-12T10:37:21.137Z,62
2018-07-12T10:38:21.158Z,62
2018-07-12T10:39:21.181Z,61.52
2018-07-12T10:40:21.202Z,61.91
2018-07-12T10:41:21.222Z,61.71
2018-07-12T10:42:21.412Z,61.36
2018-07-12T10:43:21.274Z,61.46
2018-07-12T10:44:21.043Z,61.55
2018-07-12T10:45:21.312Z,61.26
2018-07-12T10:46:21.186Z,61.65
2018-07-12T10:47:21.352Z,61.07
2018-07-12T10:48:21.106Z,61.07
2018-07-12T10:49:21.392Z,61.26
2018-07-12T10:50:21.417Z,61.55
2018-07-12T10:51:21.171Z,61.77
2018-07-12T10:52:21.461Z,61.1
2018-07-12T10:53:21.216Z,61
2018-07-12T10:54:21.499Z,61
2018-07-12T10:55:21.258Z,60.81
2018-07-12T10:56:21.549Z,61.19
2018-07-12T10:57:21.569Z,61.04
2018-07-12T10:58:21.589Z,60.84
2018-07-12T10:59:21.613Z,60.55
2018-07-12T11:00:21.689Z,60.77
2018-07-12T11:01:21.656Z,60
2018-07-12T11:02:21.412Z,59.91
2018-07-12T11:03:21.709Z,59.23
2018-07-12T11:04:21.737Z,59.23
2018-07-12T11:05:21.744Z,59.55
2018-07-12T11:06:21.768Z,59.55
2018-07-12T11:07:21.789Z,58.69
2018-07-12T11:08:21.810Z,58.2
2018-07-12T11:09:21.683Z,58.01
2018-07-12T11:10:21.859Z,57.82
2018-07-12T11:11:21.971Z,57.72
2018-07-12T11:12:21.899Z,57.07
2018-07-12T11:13:21.655Z,57.05
2018-07-12T11:14:22.124Z,58.01
2018-07-12T11:15:21.700Z,58.01
2018-07-12T11:16:21.987Z,59.27
2018-07-12T11:17:22.200Z,59.45
2018-07-12T11:18:21.765Z,59.65
2018-07-12T11:19:21.789Z,59.75
2018-07-12T11:20:21.810Z,59.75
2018-07-12T11:21:21.834Z,60.13
2018-07-12T11:22:22.123Z,60.52
2018-07-12T11:23:22.153Z,60.52
2018-07-12T11:24:22.168Z,61.19
2018-07-12T11:25:22.195Z,60.61
2018-07-12T11:26:22.213Z,60.42
2018-07-12T11:27:22.240Z,60.52
2018-07-12T11:28:22.267Z,61
2018-07-12T11:29:22.013Z,60.9
2018-07-12T11:30:22.503Z,60.8
2018-07-12T11:31:22.326Z,60.8
2018-07-12T11:32:22.353Z,60.71
2018-07-12T11:33:22.376Z,60.52
2018-07-12T11:34:22.392Z,59.75
2018-07-12T11:35:22.151Z,59.65
2018-07-12T11:36:22.571Z,59.36
2018-07-12T11:37:22.464Z,58.33
2018-07-12T11:38:22.506Z,58.62
2018-07-12T11:39:22.511Z,58.42
2018-07-12T11:40:22.262Z,58.42
2018-07-12T11:41:22.555Z,57.94
2018-07-12T11:42:22.578Z,58.14
2018-07-12T11:43:22.611Z,58.14
2018-07-12T11:44:22.626Z,57.65
2018-07-12T11:45:22.645Z,57.56
2018-07-12T11:46:22.850Z,57.94
2018-07-12T11:47:22.688Z,57.97
2018-07-12T11:48:22.716Z,57.39
2018-07-12T11:49:22.738Z,57.59
2018-07-12T11:50:22.790Z,57.01
2018-07-12T11:51:22.789Z,57.49
2018-07-12T11:52:22.807Z,57.1
2018-07-12T11:53:22.678Z,57.2
2018-07-12T11:54:22.849Z,57.29
2018-07-12T11:55:23.049Z,57.87
2018-07-12T11:56:22.896Z,57.97
2018-07-12T11:57:23.106Z,58.75
2018-07-12T11:58:23.127Z,58.55
2018-07-12T11:59:22.702Z,59.32
2018-07-12T12:00:22.988Z,59.61
2018-07-12T12:01:23.067Z,59.25
2018-07-12T12:02:23.037Z,59.13
2018-07-12T12:03:23.060Z,59.23
2018-07-12T12:04:22.936Z,59.35
2018-07-12T12:05:23.122Z,59.16
2018-07-12T12:06:23.129Z,59.45
2018-07-12T12:07:23.151Z,58.39
2018-07-12T12:08:23.186Z,57.97
2018-07-12T12:09:23.050Z,58.77
2018-07-12T12:10:23.023Z,59.35
2018-07-12T12:11:22.977Z,59.06
2018-07-12T12:12:23.266Z,59.64
2018-07-12T12:13:23.293Z,60.19
2018-07-12T12:14:23.331Z,59.93
2018-07-12T12:15:23.339Z,60.13
2018-07-12T12:16:23.360Z,60.22
2018-07-12T12:17:23.385Z,60.03
2018-07-12T12:18:23.407Z,60.22
2018-07-12T12:19:23.502Z,59.83
2018-07-12T12:20:23.187Z,59.64
2018-07-12T12:21:23.478Z,60.31
2018-07-12T12:22:23.732Z,59.83
2018-07-12T12:23:23.522Z,59.74
2018-07-12T12:24:23.615Z,59.45
2018-07-12T12:25:23.574Z,59.38
2018-07-12T12:26:23.598Z,59.28
2018-07-12T12:27:23.695Z,59.09
2018-07-12T12:28:23.649Z,58.51
2018-07-12T12:29:23.667Z,58.7
2018-07-12T12:30:23.693Z,58.61
2018-07-12T12:31:23.755Z,58.9
2018-07-12T12:32:23.738Z,59.38
2018-07-12T12:33:23.773Z,59.38
2018-07-12T12:34:23.788Z,59.48
2018-07-12T12:35:23.542Z,59
2018-07-12T12:36:23.565Z,59.09
2018-07-12T12:37:23.853Z,59.09
2018-07-12T12:38:23.610Z,59.67
2018-07-12T12:39:23.901Z,59.38
2018-07-12T12:40:23.922Z,59.7
2018-07-12T12:41:23.947Z,58.35
2018-07-12T12:42:23.981Z,58.45
2018-07-12T12:43:23.995Z,57.87
2018-07-12T12:44:24.024Z,57.87
2018-07-12T12:45:24.045Z,57.19
2018-07-12T12:46:24.253Z,57.31
2018-07-12T12:47:24.092Z,57.21
2018-07-12T12:48:23.849Z,57.31
2018-07-12T12:49:24.139Z,56.45
2018-07-12T12:50:23.897Z,55.77
2018-07-12T12:51:25.456Z,56.45
2018-07-12T12:52:23.944Z,55.96
2018-07-12T12:53:24.237Z,55.67
2018-07-12T12:54:24.261Z,56.28
2018-07-12T12:55:24.287Z,55.41